March ARB Airport
KRIV : rendu visible

Aérodrome :











RETROUVEZ-NOUS SUR...

 
LOGIN :

S'inscrire | Disclaimer

   EN    FR    IT 

 









Légende :    VFR   VFR Marginal   IFR   IFR Intensif   IFR Très Intensif
Visi : 
Plafond : 
>= 8 km
>= 3000ft
5 à 8 km
1000 à 3000 ft
1500m à 5 km
500 à 1000 ft
800 à 1500m
200 à 500 ft
< 800m
< 200 ft
Symboles :   Orages  Brouillard  Fortes neiges  Fortes précipitations  Vent > 20 kt






- Altitude de l'aérodrome : 1536 ft


KRIV - March ARB

DERNIER METAR :
  • 071358Z AUTO 00000KT 10SM OVC050 10/08 A3003 RMK AO2 SLP169 T00950084

METARs EXPIRÉS :
  • 071258Z 00000KT 10SM BKN060 BKN070 BKN100 10/08 A3001 RMK AO2A SLP161 T00950081
  • 071158Z 00000KT 10SM SCT020 BKN050 BKN070 BKN110 10/08 A3000 RMK AO2A SLP158 60010 70109 T00950083 10098 20093 57008

TAF COR TAF KRIV
Valide du 07 à 12h jusqu'au 08 à 18h UTC


071230Z 0712/0818 15006KT 9999 VCSH SCT020 BKN050 BKN070 620505 540406 QNH3000INS
TEMPO 0713/0720 9999 -RA SCT020 BKN040
BECMG 0719/0720 28009KT 9999 -RA SCT020 BKN030 620507 540409 QNH2997INS WND 170V300
TEMPO 0721/0806 VRB10G15KT 8000 RA BR VCTS BKN015 OVC025CB 540209
BECMG 0805/0806 VRB05KT 9999 VCSH BKN020 OVC030 620406 QNH2997INS
TEMPO 0806/0818 8000 -RA BR BKN015 OVC025 TX14/0722Z TN09/0713Z



MET'MAP, la Météo Aéronautique d'un coup d'oeil ! - Copyright ORBIFLY Décembre 2007 - Disclaimer

ORBIFLY MET'MAP TEAM :

Programmation & Développement : Alexandra Zaïnal
Sur une idée originale de : Baudouin d'Aumeries
Assistance à la programmation : Marc-Olivier Méhu
Soutien technique & logistique : Manuel Goepfert

Contact : metmap@orbifly.com




SOURCES & CREDITS :

   NOAA       Earth
Advisory